Terminal Aerodrome Forecast
Issued by NWS St Louis, MO

Home | Current Version | Previous Version | Graphics & Text | Print | Product List | Glossary On
Versions: 1 2 3 4 5 6 7 8 9 10 11 12 13 14 15 16 17 18 19 20 21 22 23 24 25 26 27 28 29 30
000
FTUS43 KLSX 162018 AAB
TAFSTL
TAF AMD
KSTL 162018Z 1620/1724 18007KT P6SM VCTS BKN050CB
      TEMPO 1621/1624 VRB20G35KT 2SM +TSRA BKN020CB
     FM170600 19007KT 3SM -SHRA VCTS BKN035CB
     FM170900 22005KT P6SM VCTS OVC025CB
     FM171400 23007KT P6SM BKN030
     FM171700 25008KT P6SM SCT035=

USA.gov is the U.S. government's official web portal to all federal, state and local government web resources and services.